createdAt,value
2023-02-07T00:00:10.132Z,13.70
2023-02-07T00:01:10.115Z,12.30
2023-02-07T00:02:10.168Z,12.90
2023-02-07T00:03:10.171Z,12.50
2023-02-07T00:04:10.123Z,12.20
2023-02-07T00:05:10.124Z,10.40
2023-02-07T00:06:10.134Z,8.90
2023-02-07T00:07:10.117Z,9.00
2023-02-07T00:08:10.131Z,8.50
2023-02-07T00:09:10.122Z,8.50
2023-02-07T00:10:10.133Z,9.60
2023-02-07T00:11:10.119Z,8.10
2023-02-07T00:12:10.125Z,6.90
2023-02-07T00:13:10.120Z,7.40
2023-02-07T00:14:10.128Z,8.50
2023-02-07T00:15:10.123Z,8.10
2023-02-07T00:16:10.156Z,9.10
2023-02-07T00:17:10.121Z,8.90
2023-02-07T00:18:10.152Z,6.80
2023-02-07T00:19:10.125Z,6.90
2023-02-07T00:20:10.132Z,7.20
2023-02-07T00:21:10.126Z,6.90
2023-02-07T00:22:10.129Z,6.40
2023-02-07T00:23:10.126Z,5.90
2023-02-07T00:24:10.132Z,7.70
2023-02-07T00:25:10.126Z,7.90
2023-02-07T00:26:10.132Z,10.10
2023-02-07T00:27:10.129Z,10.20
2023-02-07T00:28:10.259Z,12.70
2023-02-07T00:29:10.131Z,12.40
2023-02-07T00:30:10.137Z,13.00
2023-02-07T00:31:10.381Z,12.40
2023-02-07T00:32:10.138Z,12.70
2023-02-07T00:33:10.140Z,11.90
2023-02-07T00:34:10.162Z,10.80
2023-02-07T00:35:10.141Z,11.20
2023-02-07T00:36:10.154Z,9.80
2023-02-07T00:37:10.141Z,12.40
2023-02-07T00:38:10.147Z,11.60
2023-02-07T00:39:10.263Z,11.90
2023-02-07T00:40:10.146Z,11.30
2023-02-07T00:41:10.153Z,12.70
2023-02-07T00:42:10.152Z,11.80
2023-02-07T00:43:12.905Z,10.90
2023-02-07T00:44:10.156Z,11.50
2023-02-07T00:45:10.150Z,10.80
2023-02-07T00:46:10.206Z,11.50
2023-02-07T00:47:10.154Z,10.80
2023-02-07T00:48:10.156Z,9.70
2023-02-07T00:49:10.159Z,9.70
2023-02-07T00:50:10.183Z,10.60
2023-02-07T00:51:10.159Z,11.00
2023-02-07T00:52:10.167Z,9.70
2023-02-07T00:53:10.163Z,11.90
2023-02-07T00:54:10.166Z,9.60
2023-02-07T00:55:10.162Z,9.50
2023-02-07T00:56:10.167Z,10.70
2023-02-07T00:57:10.163Z,9.90
2023-02-07T00:58:10.272Z,10.10
2023-02-07T00:59:10.168Z,10.80
2023-02-07T01:00:10.196Z,10.20
2023-02-07T01:01:10.199Z,10.50
2023-02-07T01:02:10.175Z,8.80
2023-02-07T01:03:10.178Z,8.90
2023-02-07T01:04:10.176Z,8.40
2023-02-07T01:05:10.175Z,8.40
2023-02-07T01:06:10.204Z,10.10
2023-02-07T01:07:10.183Z,8.10
2023-02-07T01:08:10.183Z,9.20
2023-02-07T01:09:10.182Z,10.20
2023-02-07T01:10:10.186Z,9.00
2023-02-07T01:11:10.183Z,9.60
2023-02-07T01:12:10.190Z,8.90
2023-02-07T01:13:10.189Z,8.70
2023-02-07T01:14:10.191Z,10.00
2023-02-07T01:15:10.191Z,9.60
2023-02-07T01:16:10.259Z,8.50
2023-02-07T01:17:10.192Z,8.90
2023-02-07T01:18:10.194Z,10.10
2023-02-07T01:19:10.191Z,8.30
2023-02-07T01:20:10.200Z,7.80
2023-02-07T01:21:10.192Z,8.30
2023-02-07T01:22:10.220Z,8.90
2023-02-07T01:23:10.195Z,7.90
2023-02-07T01:24:10.204Z,8.00
2023-02-07T01:25:10.198Z,8.50
2023-02-07T01:26:10.199Z,7.30
2023-02-07T01:27:10.201Z,8.40
2023-02-07T01:28:10.261Z,8.10
2023-02-07T01:29:10.215Z,8.30
2023-02-07T01:30:10.207Z,9.70
2023-02-07T01:31:10.361Z,6.80
2023-02-07T01:32:10.211Z,9.30
2023-02-07T01:33:10.206Z,7.80
2023-02-07T01:34:10.210Z,7.60
2023-02-07T01:35:10.208Z,7.10
2023-02-07T01:36:10.218Z,7.80
2023-02-07T01:37:10.207Z,7.10
2023-02-07T01:38:10.239Z,8.30
2023-02-07T01:39:10.211Z,7.90
2023-02-07T01:40:10.224Z,7.30
2023-02-07T01:41:10.213Z,6.70
2023-02-07T01:42:10.220Z,6.50
2023-02-07T01:43:10.217Z,6.60
2023-02-07T01:44:10.216Z,6.60
2023-02-07T01:45:10.216Z,8.70
2023-02-07T01:46:10.255Z,6.20
2023-02-07T01:47:10.216Z,6.70
2023-02-07T01:48:10.236Z,6.60
2023-02-07T01:49:10.222Z,6.10
2023-02-07T01:50:10.221Z,6.30
2023-02-07T01:51:10.221Z,6.50
2023-02-07T01:52:10.223Z,6.10
2023-02-07T01:53:10.224Z,7.70
2023-02-07T01:54:10.256Z,8.50
2023-02-07T01:55:10.226Z,8.50
2023-02-07T01:56:13.424Z,8.40
2023-02-07T01:57:10.228Z,8.40
2023-02-07T01:58:10.232Z,8.10
2023-02-07T01:59:10.236Z,8.10
2023-02-07T02:00:10.229Z,7.70
2023-02-07T02:01:10.250Z,7.60
2023-02-07T02:02:10.231Z,7.10
2023-02-07T02:03:10.232Z,7.30
2023-02-07T02:04:10.240Z,6.80
2023-02-07T02:05:10.328Z,6.70
2023-02-07T02:06:10.236Z,6.90
2023-02-07T02:07:10.253Z,8.90
2023-02-07T02:08:10.246Z,6.00
2023-02-07T02:09:10.233Z,5.90
2023-02-07T02:10:10.263Z,7.00
2023-02-07T02:11:10.237Z,6.70
2023-02-07T02:12:10.242Z,7.50
2023-02-07T02:13:10.257Z,6.80
2023-02-07T02:14:10.245Z,7.70
2023-02-07T02:15:10.238Z,5.70
2023-02-07T02:16:10.297Z,6.20
2023-02-07T02:17:10.238Z,7.30
2023-02-07T02:18:10.256Z,6.00
2023-02-07T02:19:10.243Z,5.50
2023-02-07T02:20:10.245Z,8.20
2023-02-07T02:21:10.247Z,6.50
2023-02-07T02:22:10.246Z,6.10
2023-02-07T02:23:10.245Z,7.70
2023-02-07T02:24:10.252Z,6.30
2023-02-07T02:25:10.258Z,6.80
2023-02-07T02:26:10.270Z,6.80
2023-02-07T02:27:10.252Z,7.20
2023-02-07T02:28:10.304Z,5.90
2023-02-07T02:29:10.245Z,5.80
2023-02-07T02:30:10.257Z,7.10
2023-02-07T02:31:10.347Z,6.50
2023-02-07T02:32:10.266Z,5.70
2023-02-07T02:33:10.260Z,6.70
2023-02-07T02:34:10.254Z,6.70
2023-02-07T02:35:10.254Z,6.90
2023-02-07T02:36:10.255Z,5.70
2023-02-07T02:37:10.251Z,6.50
2023-02-07T02:38:10.252Z,8.00
2023-02-07T02:39:10.257Z,6.90
2023-02-07T02:40:10.271Z,7.60
2023-02-07T02:41:10.253Z,7.80
2023-02-07T02:42:10.279Z,6.20
2023-02-07T02:43:10.254Z,6.50
2023-02-07T02:44:10.260Z,6.50
2023-02-07T02:45:10.270Z,6.60
2023-02-07T02:46:10.294Z,6.60
2023-02-07T02:47:10.261Z,6.20
2023-02-07T02:48:10.259Z,6.20
2023-02-07T02:49:10.261Z,5.30
2023-02-07T02:50:10.272Z,5.10
2023-02-07T02:51:10.260Z,6.20
2023-02-07T02:52:10.262Z,8.30
2023-02-07T02:53:10.275Z,6.00
2023-02-07T02:54:10.266Z,6.00
2023-02-07T02:55:10.268Z,4.90
2023-02-07T02:56:10.265Z,5.30
2023-02-07T02:57:10.268Z,5.40
2023-02-07T02:58:10.285Z,5.00
2023-02-07T02:59:10.268Z,7.80
2023-02-07T03:00:10.274Z,6.10
2023-02-07T03:01:10.277Z,6.20
2023-02-07T03:02:10.272Z,5.60
2023-02-07T03:03:10.302Z,6.40
2023-02-07T03:04:10.273Z,6.70
2023-02-07T03:05:10.300Z,6.30
2023-02-07T03:06:10.265Z,8.20
2023-02-07T03:07:10.268Z,6.80
2023-02-07T03:08:10.271Z,6.60
2023-02-07T03:09:10.271Z,7.40
2023-02-07T03:10:10.269Z,7.70
2023-02-07T03:11:10.270Z,5.30
2023-02-07T03:12:10.267Z,5.60
2023-02-07T03:13:10.269Z,6.60
2023-02-07T03:14:10.298Z,6.00
2023-02-07T03:15:10.273Z,6.10
2023-02-07T03:16:10.284Z,10.30
2023-02-07T03:17:10.272Z,6.70
2023-02-07T03:18:10.266Z,7.90
2023-02-07T03:19:10.275Z,6.10
2023-02-07T03:20:10.269Z,6.10
2023-02-07T03:21:10.270Z,5.70
2023-02-07T03:22:10.266Z,5.90
2023-02-07T03:23:10.280Z,6.60
2023-02-07T03:24:10.267Z,5.70
2023-02-07T03:25:10.277Z,6.20
2023-02-07T03:26:10.265Z,6.70
2023-02-07T03:27:10.271Z,5.40
2023-02-07T03:28:10.288Z,7.50
2023-02-07T03:29:10.282Z,6.00
2023-02-07T03:30:10.295Z,5.80
2023-02-07T03:31:10.349Z,6.10
2023-02-07T03:32:10.265Z,5.90
2023-02-07T03:33:10.291Z,6.10
2023-02-07T03:34:10.275Z,4.90
2023-02-07T03:35:10.266Z,6.20
2023-02-07T03:36:10.266Z,4.80
2023-02-07T03:37:10.268Z,5.40
2023-02-07T03:38:10.264Z,6.30
2023-02-07T03:39:10.296Z,6.10
2023-02-07T03:40:10.266Z,5.50
2023-02-07T03:41:10.285Z,5.20
2023-02-07T03:42:10.263Z,6.60
2023-02-07T03:43:10.267Z,5.80
2023-02-07T03:44:10.262Z,7.10
2023-02-07T03:45:10.267Z,5.60
2023-02-07T03:46:10.375Z,5.00
2023-02-07T03:47:10.265Z,6.50
2023-02-07T03:48:10.264Z,5.00
2023-02-07T03:49:10.266Z,5.30
2023-02-07T03:50:10.272Z,5.80
2023-02-07T03:51:10.267Z,5.30
2023-02-07T03:52:10.263Z,6.60
2023-02-07T03:53:10.275Z,6.50
2023-02-07T03:54:10.266Z,5.90
2023-02-07T03:55:10.271Z,5.70
2023-02-07T03:56:10.262Z,5.90
2023-02-07T03:57:10.269Z,7.70
2023-02-07T03:58:10.264Z,5.40
2023-02-07T03:59:10.267Z,5.60
2023-02-07T04:00:10.263Z,7.50
2023-02-07T04:01:10.301Z,13.90
2023-02-07T04:02:10.334Z,5.80
2023-02-07T04:03:10.276Z,6.10
2023-02-07T04:04:10.262Z,6.50
2023-02-07T04:05:10.372Z,5.00
2023-02-07T04:06:10.266Z,4.40
2023-02-07T04:07:10.271Z,6.60
2023-02-07T04:08:10.278Z,4.80
2023-02-07T04:09:11.885Z,5.50
2023-02-07T04:10:10.265Z,4.90
2023-02-07T04:11:10.281Z,4.80
2023-02-07T04:12:10.265Z,6.30
2023-02-07T04:13:10.268Z,4.60
2023-02-07T04:14:10.268Z,4.80
2023-02-07T04:15:10.270Z,5.70
2023-02-07T04:16:10.354Z,4.80
2023-02-07T04:17:10.271Z,7.70
2023-02-07T04:18:10.321Z,6.90
2023-02-07T04:19:10.265Z,6.00
2023-02-07T04:20:10.287Z,5.00
2023-02-07T04:21:10.269Z,7.00
2023-02-07T04:22:10.263Z,5.60
2023-02-07T04:23:10.271Z,5.40
2023-02-07T04:24:10.289Z,4.60
2023-02-07T04:25:10.279Z,5.20
2023-02-07T04:26:10.266Z,5.50
2023-02-07T04:27:10.266Z,6.00
2023-02-07T04:28:10.292Z,5.00
2023-02-07T04:29:10.264Z,6.50
2023-02-07T04:30:10.259Z,5.20
2023-02-07T04:31:10.267Z,5.20
2023-02-07T04:32:10.261Z,5.40
2023-02-07T04:33:10.268Z,5.10
2023-02-07T04:34:10.287Z,5.20
2023-02-07T04:35:10.265Z,4.70
2023-02-07T04:36:10.258Z,5.20
2023-02-07T04:37:10.273Z,7.10
2023-02-07T04:38:10.265Z,5.80
2023-02-07T04:39:10.286Z,6.20
2023-02-07T04:40:10.258Z,7.70
2023-02-07T04:41:10.270Z,5.00
2023-02-07T04:42:10.261Z,5.00
2023-02-07T04:43:10.258Z,5.30
2023-02-07T04:44:10.258Z,5.10
2023-02-07T04:45:10.259Z,5.30
2023-02-07T04:46:10.336Z,5.90
2023-02-07T04:47:10.261Z,5.10
2023-02-07T04:48:10.262Z,6.20
2023-02-07T04:49:10.256Z,5.80
2023-02-07T04:50:10.284Z,5.40
2023-02-07T04:51:10.257Z,5.00
2023-02-07T04:52:10.256Z,5.30
2023-02-07T04:53:10.255Z,5.00
2023-02-07T04:54:10.251Z,4.80
2023-02-07T04:55:10.261Z,5.20
2023-02-07T04:56:10.253Z,5.00
2023-02-07T04:57:10.262Z,5.20
2023-02-07T04:58:10.255Z,5.60
2023-02-07T04:59:10.255Z,6.90
2023-02-07T05:00:10.250Z,4.40
2023-02-07T05:01:10.283Z,5.60
2023-02-07T05:02:10.277Z,4.60
2023-02-07T05:03:10.259Z,5.90
2023-02-07T05:04:10.298Z,5.20
2023-02-07T05:05:10.255Z,7.70
2023-02-07T05:06:10.370Z,6.10
2023-02-07T05:07:10.264Z,6.70
2023-02-07T05:08:10.250Z,7.90
2023-02-07T05:09:10.258Z,5.90
2023-02-07T05:10:10.261Z,5.30
2023-02-07T05:11:10.252Z,5.10
2023-02-07T05:12:10.253Z,5.50
2023-02-07T05:13:10.272Z,5.60
2023-02-07T05:14:10.251Z,6.00
2023-02-07T05:15:10.252Z,5.20
2023-02-07T05:16:10.251Z,6.40
2023-02-07T05:17:10.254Z,5.20
2023-02-07T05:18:10.253Z,5.40
2023-02-07T05:19:10.253Z,6.30
2023-02-07T05:20:10.250Z,5.50
2023-02-07T05:21:10.353Z,5.20
2023-02-07T05:22:10.273Z,5.30
2023-02-07T05:23:10.257Z,4.50
2023-02-07T05:24:10.254Z,6.50
2023-02-07T05:25:10.249Z,5.30
2023-02-07T05:26:10.247Z,4.80
2023-02-07T05:27:10.254Z,5.10
2023-02-07T05:28:10.343Z,5.50
2023-02-07T05:29:10.248Z,5.60
2023-02-07T05:30:10.245Z,5.10
2023-02-07T05:31:10.396Z,6.20
2023-02-07T05:32:10.251Z,6.00
2023-02-07T05:33:10.249Z,7.10
2023-02-07T05:34:10.249Z,5.60
2023-02-07T05:35:10.245Z,5.70
2023-02-07T05:36:10.244Z,6.10
2023-02-07T05:37:10.245Z,4.80
2023-02-07T05:38:10.263Z,5.20
2023-02-07T05:39:10.251Z,5.80
2023-02-07T05:40:10.239Z,5.50
2023-02-07T05:41:10.241Z,6.20
2023-02-07T05:42:10.249Z,4.80
2023-02-07T05:43:10.268Z,4.90
2023-02-07T05:44:10.236Z,4.90
2023-02-07T05:45:10.238Z,5.50
2023-02-07T05:46:10.248Z,4.80
2023-02-07T05:47:10.239Z,4.70
2023-02-07T05:48:10.235Z,4.90
2023-02-07T05:49:10.240Z,4.80
2023-02-07T05:50:10.237Z,5.00
2023-02-07T05:51:10.237Z,5.00
2023-02-07T05:52:10.231Z,7.30
2023-02-07T05:53:10.234Z,5.30
2023-02-07T05:54:10.253Z,7.10
2023-02-07T05:55:10.243Z,5.80
2023-02-07T05:56:10.228Z,4.70
2023-02-07T05:57:10.237Z,6.10
2023-02-07T05:58:10.229Z,4.60
2023-02-07T05:59:10.242Z,4.80
2023-02-07T06:00:10.231Z,7.60
2023-02-07T06:01:10.228Z,5.00
2023-02-07T06:02:10.248Z,5.20
2023-02-07T06:03:10.284Z,4.70
2023-02-07T06:04:10.227Z,6.50
2023-02-07T06:05:10.226Z,7.20
2023-02-07T06:06:10.223Z,5.60
2023-02-07T06:07:10.238Z,6.00
2023-02-07T06:08:10.228Z,5.90
2023-02-07T06:09:10.227Z,5.60
2023-02-07T06:10:10.241Z,5.60
2023-02-07T06:11:10.223Z,6.60
2023-02-07T06:12:10.219Z,5.10
2023-02-07T06:13:10.231Z,5.10
2023-02-07T06:14:10.222Z,7.10
2023-02-07T06:15:10.235Z,6.00
2023-02-07T06:16:10.226Z,5.00
2023-02-07T06:17:10.222Z,6.50
2023-02-07T06:18:10.213Z,6.10
2023-02-07T06:19:10.219Z,6.80
2023-02-07T06:20:10.215Z,4.80
2023-02-07T06:21:10.215Z,5.20
2023-02-07T06:22:10.212Z,5.00
2023-02-07T06:23:10.213Z,6.30
2023-02-07T06:24:10.211Z,5.20
2023-02-07T06:25:10.469Z,4.80
2023-02-07T06:26:10.236Z,4.70
2023-02-07T06:27:10.222Z,7.10
2023-02-07T06:28:10.226Z,4.90
2023-02-07T06:29:10.211Z,4.80
2023-02-07T06:30:10.225Z,4.70
2023-02-07T06:31:10.343Z,4.60
2023-02-07T06:32:10.206Z,4.80
2023-02-07T06:33:10.215Z,5.00
2023-02-07T06:34:10.207Z,5.10
2023-02-07T06:35:10.221Z,5.00
2023-02-07T06:36:10.206Z,5.20
2023-02-07T06:37:10.211Z,4.60
2023-02-07T06:38:10.205Z,5.80
2023-02-07T06:39:10.220Z,5.20
2023-02-07T06:40:10.219Z,4.90
2023-02-07T06:41:10.210Z,6.10
2023-02-07T06:42:10.229Z,4.50
2023-02-07T06:43:10.214Z,5.30
2023-02-07T06:44:10.207Z,6.20
2023-02-07T06:45:10.223Z,5.60
2023-02-07T06:46:10.204Z,5.10
2023-02-07T06:47:10.203Z,5.70
2023-02-07T06:48:10.201Z,5.50
2023-02-07T06:49:10.203Z,5.10
2023-02-07T06:50:10.203Z,6.40
2023-02-07T06:51:10.201Z,6.30
2023-02-07T06:52:10.198Z,5.30
2023-02-07T06:53:10.210Z,4.80
2023-02-07T06:54:10.212Z,5.50
2023-02-07T06:55:10.198Z,5.80
2023-02-07T06:56:10.212Z,4.60
2023-02-07T06:57:10.196Z,7.60
2023-02-07T06:58:10.219Z,4.70
2023-02-07T06:59:10.197Z,4.40
2023-02-07T07:00:10.190Z,5.10
2023-02-07T07:01:10.199Z,4.70
2023-02-07T07:02:10.189Z,4.80
2023-02-07T07:03:10.193Z,4.90
2023-02-07T07:04:10.201Z,7.30
2023-02-07T07:05:10.191Z,4.90
2023-02-07T07:06:10.223Z,4.90
2023-02-07T07:07:10.191Z,4.60
2023-02-07T07:08:10.186Z,4.40
2023-02-07T07:09:10.191Z,4.50
2023-02-07T07:10:10.271Z,4.70
2023-02-07T07:11:10.195Z,5.00
2023-02-07T07:12:10.186Z,5.50
2023-02-07T07:13:10.187Z,5.30
2023-02-07T07:14:10.212Z,5.20
2023-02-07T07:15:10.188Z,5.10
2023-02-07T07:16:10.235Z,6.30
2023-02-07T07:17:10.184Z,5.30
2023-02-07T07:18:10.192Z,5.60
2023-02-07T07:19:10.197Z,5.80
2023-02-07T07:20:10.193Z,6.70
2023-02-07T07:21:10.183Z,6.60
2023-02-07T07:22:10.188Z,4.90
2023-02-07T07:23:10.182Z,5.60
2023-02-07T07:24:10.184Z,4.80
2023-02-07T07:25:10.178Z,5.80
2023-02-07T07:26:10.185Z,4.70
2023-02-07T07:27:10.176Z,5.00
2023-02-07T07:28:10.223Z,4.90
2023-02-07T07:29:10.176Z,4.50
2023-02-07T07:30:10.746Z,7.50
2023-02-07T07:31:10.240Z,5.60
2023-02-07T07:32:10.177Z,5.80
2023-02-07T07:33:10.181Z,4.80
2023-02-07T07:34:10.175Z,4.40
2023-02-07T07:35:10.175Z,4.80
2023-02-07T07:36:10.176Z,5.70
2023-02-07T07:37:10.170Z,4.80
2023-02-07T07:38:10.172Z,6.00
2023-02-07T07:39:10.166Z,5.90
2023-02-07T07:40:10.188Z,4.60
2023-02-07T07:41:10.166Z,5.00
2023-02-07T07:42:10.166Z,6.10
2023-02-07T07:43:10.173Z,5.70
2023-02-07T07:44:10.166Z,4.80
2023-02-07T07:45:10.189Z,6.40
2023-02-07T07:46:10.200Z,4.40
2023-02-07T07:47:10.161Z,5.00
2023-02-07T07:48:10.201Z,5.80
2023-02-07T07:49:10.158Z,4.70
2023-02-07T07:50:10.160Z,6.60
2023-02-07T07:51:10.167Z,4.60
2023-02-07T07:52:10.160Z,4.80
2023-02-07T07:53:10.155Z,5.60
2023-02-07T07:54:10.159Z,4.80
2023-02-07T07:55:10.164Z,4.80
2023-02-07T07:56:10.166Z,5.30
2023-02-07T07:57:10.162Z,5.20
2023-02-07T07:58:10.158Z,5.70
2023-02-07T07:59:20.097Z,4.80
2023-02-07T08:00:10.156Z,4.40
2023-02-07T08:01:10.232Z,6.10
2023-02-07T08:02:10.171Z,4.80
2023-02-07T08:03:10.150Z,4.50
2023-02-07T08:04:10.208Z,7.60
2023-02-07T08:05:12.553Z,6.60
2023-02-07T08:06:10.173Z,4.40
2023-02-07T08:07:10.169Z,5.10
2023-02-07T08:08:10.158Z,4.60
2023-02-07T08:09:10.150Z,5.50
2023-02-07T08:10:10.162Z,5.10
2023-02-07T08:11:10.151Z,6.00
2023-02-07T08:12:10.153Z,5.20
2023-02-07T08:13:10.151Z,4.60
2023-02-07T08:14:10.151Z,5.00
2023-02-07T08:15:10.144Z,6.10
2023-02-07T08:16:10.172Z,6.50
2023-02-07T08:17:10.160Z,4.80
2023-02-07T08:18:10.175Z,6.40
2023-02-07T08:19:10.167Z,4.50
2023-02-07T08:20:10.155Z,4.60
2023-02-07T08:21:10.148Z,6.00
2023-02-07T08:22:10.156Z,5.70
2023-02-07T08:23:10.151Z,4.60
2023-02-07T08:24:10.153Z,7.50
2023-02-07T08:25:10.144Z,5.60
2023-02-07T08:26:10.150Z,4.80
2023-02-07T08:27:10.144Z,6.40
2023-02-07T08:28:10.228Z,5.40
2023-02-07T08:29:10.143Z,5.20
2023-02-07T08:30:10.159Z,5.10
2023-02-07T08:31:10.150Z,7.30
2023-02-07T08:32:10.171Z,4.50
2023-02-07T08:33:10.145Z,6.40
2023-02-07T08:34:10.167Z,5.30
2023-02-07T08:35:10.147Z,5.10
2023-02-07T08:36:10.152Z,5.80
2023-02-07T08:37:10.149Z,5.30
2023-02-07T08:38:10.149Z,4.50
2023-02-07T08:39:10.147Z,5.80
2023-02-07T08:40:10.153Z,5.20
2023-02-07T08:41:10.145Z,6.90
2023-02-07T08:42:10.148Z,4.70
2023-02-07T08:43:10.146Z,6.30
2023-02-07T08:44:10.151Z,5.50
2023-02-07T08:45:10.183Z,5.90
2023-02-07T08:46:10.306Z,5.30
2023-02-07T08:47:10.155Z,5.10
2023-02-07T08:48:10.157Z,4.00
2023-02-07T08:49:10.154Z,5.20
2023-02-07T08:50:10.168Z,4.70
2023-02-07T08:51:10.148Z,5.10
2023-02-07T08:52:10.152Z,4.70
2023-02-07T08:53:10.152Z,4.50
2023-02-07T08:54:10.164Z,4.50
2023-02-07T08:55:10.158Z,5.00
2023-02-07T08:56:10.155Z,4.40
2023-02-07T08:57:10.155Z,5.20
2023-02-07T08:58:10.157Z,5.80
2023-02-07T08:59:10.156Z,7.00
2023-02-07T09:00:10.157Z,4.40
2023-02-07T09:01:10.169Z,5.90
2023-02-07T09:02:10.186Z,4.70
2023-02-07T09:03:10.161Z,6.80
2023-02-07T09:04:10.165Z,6.90
2023-02-07T09:05:10.158Z,5.30
2023-02-07T09:06:10.205Z,7.20
2023-02-07T09:07:10.161Z,4.40
2023-02-07T09:08:10.169Z,4.90
2023-02-07T09:09:10.162Z,4.90
2023-02-07T09:10:10.165Z,4.30
2023-02-07T09:11:10.218Z,5.20
2023-02-07T09:12:10.169Z,4.60
2023-02-07T09:13:10.169Z,4.60
2023-02-07T09:14:10.267Z,6.30
2023-02-07T09:15:10.169Z,4.50
2023-02-07T09:16:10.179Z,4.80
2023-02-07T09:17:10.168Z,6.10
2023-02-07T09:18:10.175Z,6.50
2023-02-07T09:19:10.172Z,4.30
2023-02-07T09:20:10.172Z,6.40
2023-02-07T09:21:10.177Z,4.20
2023-02-07T09:22:10.215Z,5.00
2023-02-07T09:23:10.175Z,4.50
2023-02-07T09:24:10.188Z,5.50
2023-02-07T09:25:10.181Z,4.10
2023-02-07T09:26:10.182Z,5.60
2023-02-07T09:27:10.186Z,4.00
2023-02-07T09:28:10.290Z,5.30
2023-02-07T09:29:10.190Z,5.30
2023-02-07T09:30:10.216Z,4.40
2023-02-07T09:31:10.290Z,3.90
2023-02-07T09:32:10.193Z,4.50
2023-02-07T09:33:10.188Z,4.20
2023-02-07T09:34:10.194Z,5.10
2023-02-07T09:35:10.192Z,4.80
2023-02-07T09:36:10.194Z,5.50
2023-02-07T09:37:10.197Z,4.30
2023-02-07T09:38:10.329Z,4.50
2023-02-07T09:39:10.201Z,5.50
2023-02-07T09:40:10.199Z,4.30
2023-02-07T09:41:10.200Z,6.10
2023-02-07T09:42:10.208Z,6.60
2023-02-07T09:43:10.359Z,5.20
2023-02-07T09:44:10.410Z,4.80
2023-02-07T09:45:10.403Z,6.00
2023-02-07T09:46:10.282Z,7.30
2023-02-07T09:47:10.211Z,4.40
2023-02-07T09:48:11.149Z,4.60
2023-02-07T09:49:10.209Z,5.00
2023-02-07T09:50:10.237Z,4.90
2023-02-07T09:51:10.215Z,4.90
2023-02-07T09:52:10.219Z,4.70
2023-02-07T09:53:10.217Z,4.60
2023-02-07T09:54:10.246Z,5.10
2023-02-07T09:55:10.220Z,5.00
2023-02-07T09:56:10.238Z,4.20
2023-02-07T09:57:10.236Z,4.00
2023-02-07T09:58:10.229Z,4.80
2023-02-07T09:59:10.244Z,5.00
2023-02-07T10:00:10.284Z,5.40
2023-02-07T10:01:10.273Z,4.80
2023-02-07T10:02:10.253Z,6.10
2023-02-07T10:03:10.235Z,4.60
2023-02-07T10:04:10.236Z,5.40
2023-02-07T10:05:10.238Z,4.30
2023-02-07T10:06:18.316Z,5.70
2023-02-07T10:07:10.246Z,3.90
2023-02-07T10:08:10.246Z,4.50
2023-02-07T10:09:10.245Z,4.50
2023-02-07T10:10:10.266Z,6.20
2023-02-07T10:11:10.602Z,4.30
2023-02-07T10:12:10.263Z,4.80
2023-02-07T10:13:10.253Z,4.90
2023-02-07T10:14:10.277Z,4.40
2023-02-07T10:15:10.263Z,4.90
2023-02-07T10:16:10.545Z,4.10
2023-02-07T10:17:14.071Z,7.30
2023-02-07T10:18:10.271Z,5.40
2023-02-07T10:19:10.280Z,5.00
2023-02-07T10:20:10.288Z,5.00
2023-02-07T10:21:10.278Z,4.10
2023-02-07T10:22:10.280Z,4.60
2023-02-07T10:23:10.296Z,4.90
2023-02-07T10:24:10.325Z,4.80
2023-02-07T10:25:10.316Z,4.50
2023-02-07T10:26:10.312Z,4.50
2023-02-07T10:27:10.306Z,6.90
2023-02-07T10:28:10.330Z,4.60
2023-02-07T10:29:10.303Z,6.00
2023-02-07T10:30:10.305Z,5.50
2023-02-07T10:31:10.446Z,5.00
2023-02-07T10:32:10.312Z,4.40
2023-02-07T10:33:10.324Z,4.30
2023-02-07T10:34:10.336Z,4.10
2023-02-07T10:35:10.322Z,4.90
2023-02-07T10:36:10.334Z,4.60
2023-02-07T10:37:10.329Z,4.80
2023-02-07T10:38:10.347Z,4.60
2023-02-07T10:39:10.336Z,4.40
2023-02-07T10:40:10.346Z,4.30
2023-02-07T10:41:10.343Z,4.20
2023-02-07T10:42:10.372Z,4.50
2023-02-07T10:43:10.404Z,4.40
2023-02-07T10:44:10.466Z,4.70
2023-02-07T10:45:10.360Z,4.20
2023-02-07T10:46:10.430Z,3.90
2023-02-07T10:47:10.365Z,5.10
2023-02-07T10:48:10.379Z,5.80
2023-02-07T10:49:10.374Z,5.10
2023-02-07T10:50:12.044Z,4.40
2023-02-07T10:51:10.399Z,5.00
2023-02-07T10:52:10.392Z,4.70
2023-02-07T10:53:10.390Z,5.00
2023-02-07T10:54:10.408Z,4.50
2023-02-07T10:55:10.404Z,4.10
2023-02-07T10:56:10.410Z,4.10
2023-02-07T10:57:10.407Z,5.10
2023-02-07T10:58:22.486Z,5.90
2023-02-07T10:59:10.415Z,4.30
2023-02-07T11:00:10.423Z,5.70
2023-02-07T11:01:10.433Z,5.30
2023-02-07T11:02:10.432Z,5.60
2023-02-07T11:03:10.435Z,4.70
2023-02-07T11:04:10.439Z,4.00
2023-02-07T11:05:10.477Z,4.90
2023-02-07T11:06:10.445Z,6.60
2023-02-07T11:07:10.463Z,5.00
2023-02-07T11:08:10.457Z,4.90
2023-02-07T11:09:10.460Z,4.30
2023-02-07T11:10:10.467Z,6.50
2023-02-07T11:11:10.466Z,4.60
2023-02-07T11:12:10.491Z,4.80
2023-02-07T11:13:10.474Z,4.00
2023-02-07T11:14:10.510Z,4.70
2023-02-07T11:15:10.486Z,5.70
2023-02-07T11:16:10.531Z,4.10
2023-02-07T11:17:10.498Z,5.10
2023-02-07T11:18:10.500Z,5.50
2023-02-07T11:19:10.505Z,4.40
2023-02-07T11:20:10.507Z,4.10
2023-02-07T11:21:10.510Z,5.40
2023-02-07T11:22:10.519Z,4.60
2023-02-07T11:23:10.519Z,4.50
2023-02-07T11:24:10.525Z,4.20
2023-02-07T11:25:10.537Z,4.30
2023-02-07T11:26:10.535Z,4.60
2023-02-07T11:27:10.543Z,4.60
2023-02-07T11:28:10.603Z,4.60
2023-02-07T11:29:10.547Z,4.50
2023-02-07T11:30:10.568Z,4.70
2023-02-07T11:31:10.718Z,4.10
2023-02-07T11:32:10.566Z,5.10
2023-02-07T11:33:10.566Z,5.00
2023-02-07T11:34:10.568Z,4.80
2023-02-07T11:35:10.599Z,5.00
2023-02-07T11:36:10.591Z,4.80
2023-02-07T11:37:10.585Z,4.80
2023-02-07T11:38:10.597Z,5.20
2023-02-07T11:39:10.592Z,6.00
2023-02-07T11:40:10.611Z,5.70
2023-02-07T11:41:10.607Z,5.20
2023-02-07T11:42:10.609Z,4.80
2023-02-07T11:43:10.620Z,5.70
2023-02-07T11:44:10.614Z,5.20
2023-02-07T11:45:10.627Z,4.40
2023-02-07T11:46:10.782Z,4.20
2023-02-07T11:47:10.631Z,4.00
2023-02-07T11:48:10.634Z,4.40
2023-02-07T11:49:10.642Z,4.60
2023-02-07T11:50:10.645Z,5.50
2023-02-07T11:51:10.654Z,4.90
2023-02-07T11:52:10.656Z,4.20
2023-02-07T11:53:10.664Z,4.30
2023-02-07T11:54:10.667Z,4.20
2023-02-07T11:55:10.679Z,4.10
2023-02-07T11:56:10.819Z,5.40
2023-02-07T11:57:10.696Z,4.30
2023-02-07T11:58:10.692Z,4.80
2023-02-07T11:59:10.703Z,4.90
2023-02-07T12:00:10.706Z,4.40
2023-02-07T12:01:10.711Z,4.00
2023-02-07T12:02:10.795Z,5.80
2023-02-07T12:03:10.731Z,4.70
2023-02-07T12:04:10.723Z,5.40
2023-02-07T12:05:10.756Z,5.10
2023-02-07T12:06:10.738Z,3.90
2023-02-07T12:07:10.755Z,4.00
2023-02-07T12:08:10.758Z,5.30
2023-02-07T12:09:10.769Z,4.10
2023-02-07T12:10:10.771Z,5.20
2023-02-07T12:11:10.765Z,6.00
2023-02-07T12:12:10.776Z,3.90
2023-02-07T12:13:10.786Z,4.90
2023-02-07T12:14:10.776Z,4.00
2023-02-07T12:15:10.783Z,5.10
2023-02-07T12:16:10.807Z,4.30
2023-02-07T12:17:10.801Z,5.00
2023-02-07T12:18:10.886Z,4.20
2023-02-07T12:19:10.808Z,4.30
2023-02-07T12:20:10.806Z,4.20
2023-02-07T12:21:10.819Z,5.30
2023-02-07T12:22:10.818Z,4.40
2023-02-07T12:23:35.565Z,4.00
2023-02-07T12:24:10.829Z,5.00
2023-02-07T12:25:10.835Z,6.40
2023-02-07T12:26:10.838Z,5.20
2023-02-07T12:27:10.847Z,5.60
2023-02-07T12:28:10.873Z,4.00
2023-02-07T12:29:13.928Z,3.90
2023-02-07T12:30:10.879Z,4.40
2023-02-07T12:31:10.950Z,5.20
2023-02-07T12:32:10.952Z,4.00
2023-02-07T12:33:10.885Z,4.10
2023-02-07T12:34:10.919Z,5.90
2023-02-07T12:35:10.901Z,3.90
2023-02-07T12:36:10.895Z,4.40
2023-02-07T12:37:10.901Z,4.20
2023-02-07T12:38:10.905Z,4.10
2023-02-07T12:39:10.913Z,4.40
2023-02-07T12:40:10.919Z,4.50
2023-02-07T12:41:10.925Z,3.90
2023-02-07T12:42:10.929Z,3.90
2023-02-07T12:43:10.941Z,4.00
2023-02-07T12:44:10.942Z,5.50
2023-02-07T12:45:10.950Z,4.70
2023-02-07T12:46:10.964Z,5.50
2023-02-07T12:47:10.963Z,3.70
2023-02-07T12:48:11.004Z,4.00
2023-02-07T12:49:10.976Z,5.60
2023-02-07T12:50:11.006Z,4.80
2023-02-07T12:51:10.990Z,4.50
2023-02-07T12:52:11.001Z,4.70
2023-02-07T12:53:11.000Z,5.60
2023-02-07T12:54:11.009Z,4.10
2023-02-07T12:55:11.113Z,5.50
2023-02-07T12:56:11.019Z,6.10
2023-02-07T12:57:11.040Z,4.20
2023-02-07T12:58:11.028Z,4.10
2023-02-07T12:59:11.042Z,4.40
2023-02-07T13:00:11.042Z,5.10
2023-02-07T13:01:11.079Z,4.20
2023-02-07T13:02:11.114Z,4.40
2023-02-07T13:03:11.064Z,5.30
2023-02-07T13:04:11.066Z,4.60
2023-02-07T13:05:11.075Z,4.00
2023-02-07T13:06:11.099Z,4.40
2023-02-07T13:07:11.117Z,4.40
2023-02-07T13:08:11.096Z,3.70
2023-02-07T13:09:11.101Z,4.30
2023-02-07T13:10:11.109Z,5.90
2023-02-07T13:11:11.121Z,4.90
2023-02-07T13:12:11.122Z,4.80
2023-02-07T13:13:11.127Z,5.20
2023-02-07T13:14:11.129Z,5.50
2023-02-07T13:15:11.138Z,5.10
2023-02-07T13:16:11.189Z,4.50
2023-02-07T13:17:11.152Z,3.90